createdAt,value
2019-05-10T00:01:31.597Z,86.20
2019-05-10T00:04:03.002Z,86.20
2019-05-10T00:06:34.670Z,86.10
2019-05-10T00:09:06.237Z,86.10
2019-05-10T00:11:37.906Z,86.10
2019-05-10T00:14:11.361Z,86.10
2019-05-10T00:16:42.787Z,86.00
2019-05-10T00:19:12.965Z,86.10
2019-05-10T00:21:43.346Z,86.10
2019-05-10T00:24:13.662Z,86.20
2019-05-10T00:26:44.009Z,86.20
2019-05-10T00:29:14.101Z,86.20
2019-05-10T00:31:44.545Z,86.10
2019-05-10T00:34:14.948Z,86.10
2019-05-10T00:36:45.064Z,86.10
2019-05-10T00:39:19.118Z,85.80
2019-05-10T00:41:47.140Z,85.60
2019-05-10T00:44:17.607Z,85.60
2019-05-10T00:46:47.997Z,85.50
2019-05-10T00:49:18.677Z,85.20
2019-05-10T00:51:48.844Z,85.00
2019-05-10T00:54:18.974Z,84.70
2019-05-10T00:56:49.325Z,84.50
2019-05-10T00:59:19.488Z,84.40
2019-05-10T01:01:49.826Z,84.60
2019-05-10T01:04:20.214Z,84.60
2019-05-10T01:06:50.358Z,84.60
2019-05-10T01:09:20.741Z,84.60
2019-05-10T01:11:51.111Z,84.50
2019-05-10T01:14:21.491Z,84.70
2019-05-10T01:16:51.865Z,84.60
2019-05-10T01:19:22.070Z,84.60
2019-05-10T01:21:52.652Z,84.60
2019-05-10T01:24:23.068Z,84.50
2019-05-10T01:26:53.501Z,84.40
2019-05-10T01:29:23.741Z,84.30
2019-05-10T01:32:40.164Z,84.10
2019-05-10T01:35:10.989Z,83.90
2019-05-10T01:37:41.940Z,83.80
2019-05-10T01:40:12.404Z,83.60
2019-05-10T01:42:42.937Z,83.60
2019-05-10T01:45:14.857Z,83.50
2019-05-10T01:47:45.283Z,83.60
2019-05-10T01:50:15.876Z,83.50
2019-05-10T01:52:46.336Z,83.50
2019-05-10T01:55:16.702Z,83.40
2019-05-10T01:57:46.940Z,83.30
2019-05-10T02:00:17.718Z,83.20
2019-05-10T02:02:48.287Z,83.20
2019-05-10T02:05:19.105Z,83.30
2019-05-10T02:07:49.549Z,84.20
2019-05-10T02:10:19.975Z,83.20
2019-05-10T02:12:50.294Z,83.30
2019-05-10T02:15:20.762Z,83.30
2019-05-10T02:17:51.091Z,83.40
2019-05-10T02:20:21.378Z,83.50
2019-05-10T02:22:53.273Z,83.50
2019-05-10T02:25:23.598Z,83.40
2019-05-10T02:27:53.859Z,83.50
2019-05-10T02:30:24.409Z,83.40
2019-05-10T02:32:54.750Z,83.40
2019-05-10T02:35:55.755Z,83.30
2019-05-10T02:38:26.158Z,83.40
2019-05-10T02:40:56.515Z,83.40
2019-05-10T02:43:26.765Z,83.40
2019-05-10T02:45:57.576Z,83.40
2019-05-10T02:48:27.960Z,83.40
2019-05-10T02:50:58.527Z,83.30
2019-05-10T02:53:28.707Z,83.80
2019-05-10T02:55:59.900Z,83.00
2019-05-10T02:58:30.325Z,83.00
2019-05-10T03:01:02.959Z,83.00
2019-05-10T03:03:34.730Z,82.90
2019-05-10T03:06:05.668Z,83.00
2019-05-10T03:08:38.703Z,83.10
2019-05-10T03:11:10.202Z,83.10
2019-05-10T03:13:43.331Z,83.10
2019-05-10T03:16:16.663Z,83.10
2019-05-10T03:18:48.963Z,83.20
2019-05-10T03:21:20.314Z,83.10
2019-05-10T03:23:51.264Z,83.30
2019-05-10T03:26:21.795Z,83.10
2019-05-10T03:28:52.298Z,83.30
2019-05-10T03:31:22.773Z,83.20
2019-05-10T03:33:56.961Z,83.10
2019-05-10T03:36:24.828Z,83.20
2019-05-10T03:38:55.161Z,83.10
2019-05-10T03:41:25.723Z,83.20
2019-05-10T03:43:56.009Z,83.10
2019-05-10T03:46:26.443Z,83.00
2019-05-10T03:48:56.625Z,83.00
2019-05-10T03:52:32.559Z,83.00
2019-05-10T03:55:03.410Z,82.80
2019-05-10T03:57:33.598Z,82.80
2019-05-10T04:00:03.841Z,82.80
2019-05-10T04:02:34.136Z,82.70
2019-05-10T04:05:04.753Z,82.70
2019-05-10T04:07:34.960Z,82.70
2019-05-10T04:10:06.993Z,82.80
2019-05-10T04:12:38.287Z,82.80
2019-05-10T04:15:09.989Z,82.70
2019-05-10T04:17:40.515Z,82.60
2019-05-10T04:20:11.836Z,82.50
2019-05-10T04:22:42.224Z,82.70
2019-05-10T04:25:12.889Z,82.40
2019-05-10T04:27:43.443Z,82.40
2019-05-10T04:30:14.254Z,82.30
2019-05-10T04:32:44.613Z,82.30
2019-05-10T04:35:15.236Z,82.10
2019-05-10T04:37:45.575Z,81.80
2019-05-10T04:40:16.516Z,81.70
2019-05-10T04:42:46.835Z,81.80
2019-05-10T04:45:17.584Z,82.10
2019-05-10T04:47:47.968Z,81.80
2019-05-10T04:50:18.332Z,81.60
2019-05-10T04:52:48.587Z,81.50
2019-05-10T04:55:18.881Z,81.50
2019-05-10T04:57:51.182Z,82.30
2019-05-10T05:00:21.186Z,81.40
2019-05-10T05:02:51.498Z,81.30
2019-05-10T05:05:21.725Z,81.30
2019-05-10T05:07:52.002Z,81.20
2019-05-10T05:10:22.360Z,81.10
2019-05-10T05:12:52.799Z,81.10
2019-05-10T05:15:23.231Z,80.90
2019-05-10T05:17:53.902Z,80.90
2019-05-10T05:20:24.244Z,80.90
2019-05-10T05:22:54.748Z,80.90
2019-05-10T05:25:25.096Z,81.00
2019-05-10T05:28:07.309Z,80.80
2019-05-10T05:30:27.236Z,80.80
2019-05-10T05:32:57.395Z,80.60
2019-05-10T05:35:27.833Z,80.20
2019-05-10T05:37:58.204Z,79.90
2019-05-10T05:40:28.908Z,79.60
2019-05-10T05:43:02.649Z,79.20
2019-05-10T05:45:33.921Z,79.00
2019-05-10T05:48:03.899Z,78.50
2019-05-10T05:50:34.191Z,78.60
2019-05-10T05:53:05.033Z,78.30
2019-05-10T05:55:36.034Z,78.10
2019-05-10T05:58:07.284Z,77.80
2019-05-10T06:00:44.787Z,77.50
2019-05-10T06:03:09.550Z,77.30
2019-05-10T06:05:40.037Z,77.20
2019-05-10T06:08:22.787Z,77.10
2019-05-10T06:10:43.965Z,76.80
2019-05-10T06:13:13.547Z,76.40
2019-05-10T06:15:44.000Z,76.30
2019-05-10T06:18:14.302Z,76.10
2019-05-10T06:20:46.901Z,76.00
2019-05-10T06:23:16.146Z,75.90
2019-05-10T06:25:46.379Z,75.70
2019-05-10T06:28:26.631Z,75.30
2019-05-10T06:30:48.765Z,74.90
2019-05-10T06:33:19.124Z,74.60
2019-05-10T06:35:49.399Z,74.40
2019-05-10T06:38:19.915Z,74.10
2019-05-10T06:40:50.278Z,73.80
2019-05-10T06:43:20.563Z,73.20
2019-05-10T06:45:52.436Z,73.10
2019-05-10T06:50:42.506Z,72.60
2019-05-10T06:53:12.727Z,72.20
2019-05-10T06:55:43.012Z,72.20
2019-05-10T06:58:13.254Z,72.30
2019-05-10T07:00:47.288Z,72.20
2019-05-10T07:03:15.777Z,72.40
2019-05-10T07:05:46.315Z,72.80
2019-05-10T07:08:20.303Z,72.90
2019-05-10T07:10:49.894Z,73.20
2019-05-10T07:13:20.399Z,73.30
2019-05-10T07:15:50.979Z,73.30
2019-05-10T07:18:22.549Z,73.30
2019-05-10T07:20:52.849Z,73.30
2019-05-10T07:23:23.225Z,73.40
2019-05-10T07:25:53.683Z,73.20
2019-05-10T07:28:24.105Z,73.30
2019-05-10T07:30:54.417Z,73.30
2019-05-10T07:33:24.693Z,73.30
2019-05-10T07:35:55.057Z,73.30
2019-05-10T07:38:30.814Z,73.20
2019-05-10T07:40:59.321Z,73.30
2019-05-10T07:43:29.749Z,73.40
2019-05-10T07:46:06.054Z,73.70
2019-05-10T07:48:31.604Z,73.90
2019-05-10T07:51:02.087Z,74.00
2019-05-10T07:53:32.320Z,74.00
2019-05-10T07:56:06.020Z,74.20
2019-05-10T07:58:38.366Z,74.20
2019-05-10T08:01:06.225Z,74.10
2019-05-10T08:03:44.221Z,73.90
2019-05-10T08:06:08.405Z,73.90
2019-05-10T08:08:39.243Z,74.00
2019-05-10T08:11:09.688Z,73.80
2019-05-10T08:13:40.015Z,73.70
2019-05-10T08:16:18.898Z,73.60
2019-05-10T08:18:42.670Z,73.40
2019-05-10T08:21:21.690Z,73.10
2019-05-10T08:23:44.912Z,72.80
2019-05-10T08:26:20.257Z,73.10
2019-05-10T08:28:47.024Z,72.60
2019-05-10T08:31:17.522Z,72.60
2019-05-10T08:33:56.216Z,72.70
2019-05-10T08:36:21.785Z,72.70
2019-05-10T08:39:00.590Z,72.80
2019-05-10T08:41:23.135Z,72.90
2019-05-10T08:43:53.471Z,72.80
2019-05-10T08:46:28.731Z,72.60
2019-05-10T08:48:55.592Z,72.50
2019-05-10T08:51:26.736Z,72.50
2019-05-10T08:53:58.344Z,72.60
2019-05-10T08:56:28.762Z,72.40
2019-05-10T08:58:59.071Z,72.40
2019-05-10T09:01:30.579Z,72.40
2019-05-10T09:04:06.557Z,72.50
2019-05-10T09:06:32.968Z,72.40
2019-05-10T09:09:05.948Z,72.20
2019-05-10T09:11:35.035Z,72.00
2019-05-10T09:14:05.576Z,72.00
2019-05-10T09:16:43.448Z,72.00
2019-05-10T09:20:26.685Z,72.10
2019-05-10T09:22:57.218Z,72.40
2019-05-10T09:25:30.924Z,72.50
2019-05-10T09:28:02.422Z,72.30
2019-05-10T09:30:35.476Z,72.60
2019-05-10T09:33:08.595Z,72.50
2019-05-10T09:35:38.805Z,72.50
2019-05-10T09:38:08.871Z,72.60
2019-05-10T09:40:42.606Z,72.50
2019-05-10T09:43:14.406Z,72.70
2019-05-10T09:45:42.855Z,72.80
2019-05-10T09:48:13.206Z,72.90
2019-05-10T09:50:47.021Z,73.00
2019-05-10T09:53:22.409Z,73.30
2019-05-10T09:55:55.370Z,73.40
2019-05-10T09:58:22.199Z,73.50
2019-05-10T10:00:51.301Z,73.70
2019-05-10T10:03:22.196Z,74.10
2019-05-10T10:05:55.069Z,74.20
2019-05-10T10:08:24.302Z,74.40
2019-05-10T10:11:01.347Z,74.40
2019-05-10T10:13:39.613Z,74.60
2019-05-10T10:15:58.271Z,74.90
2019-05-10T10:18:28.562Z,75.20
2019-05-10T10:20:58.851Z,75.40
2019-05-10T10:23:33.529Z,75.60
2019-05-10T10:26:01.829Z,75.90
2019-05-10T10:28:32.218Z,76.10
2019-05-10T10:31:05.284Z,76.30
2019-05-10T10:33:34.044Z,76.20
2019-05-10T10:36:07.314Z,76.50
2019-05-10T10:38:37.127Z,76.60
2019-05-10T10:41:08.263Z,76.80
2019-05-10T10:43:38.881Z,76.90
2019-05-10T10:46:12.402Z,77.20
2019-05-10T10:48:43.647Z,77.20
2019-05-10T10:51:12.884Z,77.40
2019-05-10T10:53:43.274Z,77.50
2019-05-10T10:56:13.734Z,77.70
2019-05-10T10:58:44.088Z,77.70
2019-05-10T11:01:21.701Z,77.70
2019-05-10T11:03:48.706Z,77.80
2019-05-10T11:06:17.664Z,77.90
2019-05-10T11:08:48.004Z,77.80
2019-05-10T11:11:18.199Z,77.40
2019-05-10T11:13:57.938Z,78.10
2019-05-10T11:16:20.820Z,78.20
2019-05-10T11:18:51.890Z,78.30
2019-05-10T11:21:23.305Z,78.50
2019-05-10T11:23:54.694Z,78.60
2019-05-10T11:26:26.772Z,78.60
2019-05-10T11:28:56.593Z,78.70
2019-05-10T11:31:26.810Z,78.90
2019-05-10T11:33:59.210Z,79.00
2019-05-10T11:36:31.068Z,79.40
2019-05-10T11:39:01.598Z,79.30
2019-05-10T11:41:31.931Z,79.30
2019-05-10T11:44:05.264Z,79.40
2019-05-10T11:46:34.024Z,79.30
2019-05-10T11:49:04.867Z,79.60
2019-05-10T11:51:34.918Z,79.70
2019-05-10T11:54:05.233Z,79.90
2019-05-10T11:56:36.481Z,79.90
2019-05-10T11:59:06.986Z,79.90
2019-05-10T12:01:41.499Z,80.20
2019-05-10T12:04:13.018Z,81.10
2019-05-10T12:06:41.356Z,80.50
2019-05-10T12:09:12.710Z,80.50
2019-05-10T12:11:51.635Z,80.60
2019-05-10T12:14:14.513Z,80.50
2019-05-10T12:16:44.862Z,80.70
2019-05-10T12:19:19.849Z,80.90
2019-05-10T12:21:46.776Z,81.00
2019-05-10T12:24:33.407Z,81.10
2019-05-10T12:27:13.046Z,81.20
2019-05-10T12:29:21.305Z,81.30
2019-05-10T12:31:55.180Z,81.40
2019-05-10T12:34:23.421Z,81.40
2019-05-10T12:36:57.443Z,81.40
2019-05-10T12:39:25.280Z,81.50
2019-05-10T12:41:55.480Z,81.70
2019-05-10T12:44:25.854Z,81.70
2019-05-10T12:46:56.246Z,81.80
2019-05-10T12:49:26.393Z,81.90
2019-05-10T12:51:56.925Z,82.00
2019-05-10T12:54:27.279Z,82.00
2019-05-10T12:56:57.622Z,82.00
2019-05-10T12:59:29.699Z,82.10
2019-05-10T13:02:04.345Z,82.10
2019-05-10T13:04:40.074Z,82.20
2019-05-10T13:07:03.070Z,82.20
2019-05-10T13:09:39.824Z,82.30
2019-05-10T13:12:06.298Z,82.30
2019-05-10T13:14:40.130Z,82.20
2019-05-10T13:17:09.860Z,82.40
2019-05-10T13:19:40.422Z,82.30
2019-05-10T13:22:10.712Z,82.40
2019-05-10T13:24:40.880Z,82.40
2019-05-10T13:27:11.432Z,82.40
2019-05-10T13:29:47.067Z,82.40
2019-05-10T13:32:14.934Z,82.40
2019-05-10T13:34:45.020Z,82.10
2019-05-10T13:37:23.231Z,82.10
2019-05-10T13:39:46.970Z,82.00
2019-05-10T13:42:20.927Z,81.90
2019-05-10T13:44:51.180Z,81.80
2019-05-10T13:47:21.500Z,81.70
2019-05-10T13:49:51.562Z,81.70
2019-05-10T13:52:21.935Z,81.50
2019-05-10T13:54:52.681Z,81.50
2019-05-10T13:57:23.019Z,81.50
2019-05-10T13:59:55.107Z,81.50
2019-05-10T14:02:32.695Z,81.50
2019-05-10T14:04:56.962Z,81.40
2019-05-10T14:07:27.316Z,81.30
2019-05-10T14:09:57.511Z,81.30
2019-05-10T14:12:27.746Z,81.10
2019-05-10T14:15:02.992Z,81.10
2019-05-10T14:17:29.807Z,81.00
2019-05-10T14:19:59.921Z,80.70
2019-05-10T14:22:30.534Z,80.70
2019-05-10T14:25:00.931Z,80.70
2019-05-10T14:27:35.940Z,80.70
2019-05-10T14:30:07.352Z,80.70
2019-05-10T14:32:34.584Z,80.50
2019-05-10T14:35:05.771Z,80.50
2019-05-10T14:37:36.071Z,80.50
2019-05-10T14:40:08.216Z,80.50
2019-05-10T14:42:38.489Z,80.50
2019-05-10T14:45:09.162Z,80.60
2019-05-10T14:47:48.305Z,80.60
2019-05-10T14:50:11.416Z,80.80
2019-05-10T14:52:41.838Z,80.80
2019-05-10T14:55:12.998Z,80.80
2019-05-10T14:57:43.513Z,81.10
2019-05-10T15:00:15.769Z,81.10
2019-05-10T15:02:46.230Z,81.10
2019-05-10T15:05:18.243Z,81.30
2019-05-10T15:07:51.044Z,81.40
2019-05-10T15:10:20.271Z,81.40
2019-05-10T15:12:50.407Z,81.40
2019-05-10T15:15:21.445Z,81.60
2019-05-10T15:17:54.919Z,81.60
2019-05-10T15:20:23.213Z,81.70
2019-05-10T15:22:53.667Z,81.60
2019-05-10T15:25:23.966Z,81.70
2019-05-10T15:27:54.846Z,81.70
2019-05-10T15:30:26.709Z,81.90
2019-05-10T15:32:56.908Z,82.00
2019-05-10T15:35:27.309Z,81.90
2019-05-10T15:37:57.475Z,81.90
2019-05-10T15:40:27.934Z,82.00
2019-05-10T15:42:58.227Z,82.00
2019-05-10T15:45:28.471Z,82.10
2019-05-10T15:48:02.833Z,82.80
2019-05-10T15:50:32.485Z,82.10
2019-05-10T15:53:02.697Z,82.20
2019-05-10T15:55:32.899Z,82.30
2019-05-10T15:58:03.318Z,82.20
2019-05-10T16:00:39.117Z,82.30
2019-05-10T16:03:05.114Z,82.40
2019-05-10T16:05:43.620Z,82.40
2019-05-10T16:08:06.923Z,82.50
2019-05-10T16:10:39.373Z,82.60
2019-05-10T16:13:09.033Z,82.50
2019-05-10T16:15:39.328Z,82.60
2019-05-10T16:18:09.387Z,82.70
2019-05-10T16:20:40.107Z,82.80
2019-05-10T16:23:11.221Z,82.80
2019-05-10T16:25:47.585Z,82.80
2019-05-10T16:28:15.422Z,82.90
2019-05-10T16:30:47.041Z,82.90
2019-05-10T16:33:18.147Z,83.00
2019-05-10T16:35:49.538Z,83.10
2019-05-10T16:38:19.321Z,83.10
2019-05-10T16:40:58.598Z,83.20
2019-05-10T16:43:24.629Z,83.30
2019-05-10T16:45:53.106Z,83.40
2019-05-10T16:48:23.305Z,83.60
2019-05-10T16:50:53.640Z,83.60
2019-05-10T16:53:23.962Z,83.60
2019-05-10T16:55:54.282Z,83.60
2019-05-10T16:58:24.285Z,83.60
2019-05-10T17:00:54.709Z,83.60
2019-05-10T17:03:25.382Z,83.70
2019-05-10T17:05:58.711Z,83.70
2019-05-10T17:08:30.809Z,83.70
2019-05-10T17:10:59.435Z,83.80
2019-05-10T17:13:29.618Z,83.80
2019-05-10T17:15:59.924Z,83.80
2019-05-10T17:18:30.253Z,83.80
2019-05-10T17:21:00.481Z,83.80
2019-05-10T17:23:30.926Z,83.80
2019-05-10T17:26:01.148Z,83.90
2019-05-10T17:28:35.366Z,83.80
2019-05-10T17:31:07.740Z,83.90
2019-05-10T17:33:36.777Z,83.90
2019-05-10T17:36:08.725Z,83.90
2019-05-10T17:38:37.988Z,83.90
2019-05-10T17:41:08.317Z,83.90
2019-05-10T17:43:38.667Z,84.00
2019-05-10T17:46:12.674Z,84.00
2019-05-10T17:48:46.797Z,84.00
2019-05-10T17:51:12.475Z,84.00
2019-05-10T17:53:42.778Z,84.10
2019-05-10T17:56:13.078Z,84.20
2019-05-10T17:58:43.277Z,84.30
2019-05-10T18:01:13.771Z,84.30
2019-05-10T18:03:44.035Z,84.40
2019-05-10T18:06:23.576Z,84.40
2019-05-10T18:08:46.229Z,84.40
2019-05-10T18:11:16.609Z,84.40
2019-05-10T18:13:46.952Z,85.20
2019-05-10T18:16:17.407Z,84.50
2019-05-10T18:18:48.473Z,84.60
2019-05-10T18:21:22.275Z,84.60
2019-05-10T18:23:52.548Z,84.70
2019-05-10T18:26:23.023Z,84.70
2019-05-10T18:28:53.267Z,84.70
2019-05-10T18:31:23.678Z,84.80
2019-05-10T18:33:55.677Z,84.80
2019-05-10T18:36:50.008Z,84.90
2019-05-10T18:38:57.108Z,84.80
2019-05-10T18:41:27.337Z,84.90
2019-05-10T18:43:57.649Z,84.90
2019-05-10T18:46:28.202Z,85.00
2019-05-10T18:48:58.335Z,85.00
2019-05-10T18:51:28.778Z,85.10
2019-05-10T18:53:58.935Z,85.10
2019-05-10T18:56:31.314Z,85.10
2019-05-10T18:59:06.883Z,85.10
2019-05-10T19:01:38.260Z,85.10
2019-05-10T19:04:07.391Z,85.10
2019-05-10T19:06:36.453Z,85.10
2019-05-10T19:09:08.475Z,85.10
2019-05-10T19:11:40.530Z,85.10
2019-05-10T19:14:10.583Z,84.90
2019-05-10T19:16:40.850Z,84.90
2019-05-10T19:19:11.169Z,84.80
2019-05-10T19:21:41.545Z,84.80
2019-05-10T19:24:11.872Z,84.90
2019-05-10T19:26:42.099Z,84.80
2019-05-10T19:29:12.424Z,85.00
2019-05-10T19:31:43.360Z,84.90
2019-05-10T19:34:15.452Z,85.00
2019-05-10T19:36:45.168Z,85.00
2019-05-10T19:39:15.652Z,85.00
2019-05-10T19:41:45.964Z,85.00
2019-05-10T19:44:16.602Z,85.00
2019-05-10T19:46:47.033Z,85.00
2019-05-10T19:49:17.342Z,85.10
2019-05-10T19:51:50.278Z,85.10
2019-05-10T19:54:19.982Z,85.10
2019-05-10T19:56:51.169Z,85.10
2019-05-10T19:59:21.360Z,85.20
2019-05-10T20:01:51.526Z,85.20
2019-05-10T20:04:21.871Z,85.10
2019-05-10T20:06:52.107Z,85.10
2019-05-10T20:09:22.666Z,85.10
2019-05-10T20:11:53.028Z,85.20
2019-05-10T20:14:23.344Z,85.30
2019-05-10T20:16:53.870Z,85.40
2019-05-10T20:19:24.385Z,85.50
2019-05-10T20:21:54.641Z,85.50
2019-05-10T20:24:24.964Z,85.40
2019-05-10T20:26:55.308Z,85.40
2019-05-10T20:29:25.874Z,85.40
2019-05-10T20:31:56.292Z,85.50
2019-05-10T20:34:26.890Z,85.50
2019-05-10T20:36:57.116Z,85.50
2019-05-10T20:39:27.389Z,85.50
2019-05-10T20:41:57.622Z,85.50
2019-05-10T20:44:27.972Z,85.50
2019-05-10T20:46:58.407Z,85.50
2019-05-10T20:49:28.541Z,85.50
2019-05-10T20:51:58.836Z,85.40
2019-05-10T20:54:29.278Z,85.40
2019-05-10T20:56:59.580Z,85.30
2019-05-10T20:59:29.806Z,85.40
2019-05-10T21:02:00.110Z,85.30
2019-05-10T21:04:30.489Z,85.40
2019-05-10T21:07:00.671Z,85.40
2019-05-10T21:09:31.393Z,85.50
2019-05-10T21:12:01.581Z,85.40
2019-05-10T21:14:31.807Z,85.50
2019-05-10T21:17:02.257Z,85.50
2019-05-10T21:19:32.386Z,85.40
2019-05-10T21:22:02.700Z,85.30
2019-05-10T21:24:33.067Z,85.40
2019-05-10T21:27:03.398Z,85.50
2019-05-10T21:29:33.686Z,85.50
2019-05-10T21:32:04.245Z,85.30
2019-05-10T21:34:34.560Z,85.40
2019-05-10T21:37:04.794Z,85.30
2019-05-10T21:39:35.334Z,85.40
2019-05-10T21:42:05.561Z,85.40
2019-05-10T21:44:35.872Z,85.40
2019-05-10T21:47:06.258Z,85.40
2019-05-10T21:49:36.485Z,85.50
2019-05-10T21:52:06.616Z,85.40
2019-05-10T21:54:37.054Z,85.40
2019-05-10T21:57:07.366Z,85.40
2019-05-10T21:59:37.688Z,85.40
2019-05-10T22:02:08.393Z,85.50
2019-05-10T22:04:38.691Z,85.40
2019-05-10T22:07:08.767Z,85.50
2019-05-10T22:09:39.269Z,85.50
2019-05-10T22:12:09.760Z,85.50
2019-05-10T22:14:39.752Z,85.50
2019-05-10T22:17:10.005Z,85.50
2019-05-10T22:19:40.325Z,85.50
2019-05-10T22:22:10.486Z,85.50
2019-05-10T22:24:41.021Z,85.50
2019-05-10T22:27:11.314Z,85.50
2019-05-10T22:29:41.421Z,85.50
2019-05-10T22:32:12.325Z,85.60
2019-05-10T22:34:42.878Z,85.70
2019-05-10T22:37:13.221Z,85.60
2019-05-10T22:39:43.694Z,85.70
2019-05-10T22:42:13.910Z,85.80
2019-05-10T22:44:44.230Z,85.80
2019-05-10T22:47:14.722Z,85.80
2019-05-10T22:49:44.865Z,85.80
2019-05-10T22:52:15.067Z,85.80
2019-05-10T22:54:45.539Z,85.80
2019-05-10T22:57:15.835Z,85.80
2019-05-10T22:59:46.209Z,85.90
2019-05-10T23:02:16.541Z,85.90
2019-05-10T23:04:46.770Z,86.00
2019-05-10T23:07:16.930Z,86.00
2019-05-10T23:09:47.302Z,86.10
2019-05-10T23:12:17.612Z,86.00
2019-05-10T23:14:47.826Z,86.90
2019-05-10T23:17:18.173Z,86.10
2019-05-10T23:19:48.501Z,86.10
2019-05-10T23:22:18.783Z,86.10
2019-05-10T23:24:49.230Z,86.10
2019-05-10T23:27:19.429Z,86.00
2019-05-10T23:29:49.576Z,86.00
2019-05-10T23:32:19.995Z,86.00
2019-05-10T23:34:50.381Z,86.00
2019-05-10T23:37:20.589Z,86.10
2019-05-10T23:39:50.930Z,86.10
2019-05-10T23:42:21.161Z,86.10
2019-05-10T23:44:51.396Z,86.10
2019-05-10T23:47:21.751Z,85.90
2019-05-10T23:49:52.273Z,85.80
2019-05-10T23:52:22.316Z,85.80
2019-05-10T23:54:52.366Z,85.80
2019-05-10T23:57:22.841Z,85.60
2019-05-10T23:59:53.250Z,85.40
